Steptoe Valley WMA, Nevada Weather observations

Data are for 10 minute period ending at time listed.
 Day   Time   Solar   Ave.   Ave.  Ave.  Vector  Max.   Baro.   Total    
  of    of     Rad.   Air    Rel.  Wind   Wind   Wind  Press.  Precip.   
Year   Day            Temp.  Hum.  Speed  Dir.   Gust                    
2014   (PST)  Kw/m2    F      %     mph   deg.    mph    mb.     in.     
-------------------------------------------------------------------------
 330    8:00   0.22   26.1    84    4.7   186     7.2   813.7    0.00 
 330    8:10   0.24   29.0    84    3.2   176     5.3   813.8    0.00 
 330    8:20   0.27   32.6    77    3.9   178     5.9   813.8    0.00 
 330    8:30   0.30   34.8    76    3.8   196     5.6   814.0    0.00 
 330    8:40   0.31   36.6    72    4.6   191     7.0   814.0    0.00 
 330    8:50   0.33   38.3    69    4.3   194     6.1   814.1    0.00 
 330    9:00   0.35   40.3    63    4.3   195     5.6   814.1    0.00 
 330    9:10   0.38   42.4    57    4.0   189     6.0   814.2    0.00 
 330    9:20   0.40   44.7    49    4.1   189     6.0   814.2    0.00 
 330    9:30   0.42   46.8    44    3.0   194     5.3   814.1    0.00 
 330    9:40   0.43   49.0    39    1.7   194     3.5   814.0    0.00 
 330    9:50   0.45   51.2    35    1.6   168     3.1   813.9    0.00 
 330   10:00   0.47   51.8    32    1.4   110     2.9   813.7    0.00 
 330   10:10   0.48   52.7    30    1.0    62     3.1   813.6    0.00 
 330   10:20   0.49   53.8    28    2.1   356     5.3   813.5    0.00 
 330   10:30   0.50   54.5    26    3.1   347     6.4   813.2    0.00 
 330   10:40   0.51   55.1    24    4.2   344     7.7   813.0    0.00 
 330   10:50   0.52   56.3    23    5.2   334     8.6   812.8    0.00 
 330   11:00   0.52   57.2    21    5.1   324     9.7   812.7    0.00 
 330   11:10   0.52   57.7    20    4.8   347     8.9   812.5    0.00 
 330   11:20   0.53   57.8    20    5.6   332    10.4   812.4    0.00 
 330   11:30   0.53   58.5    20    6.5   330    10.5   812.3    0.00 
 330   11:40   0.53   58.6    19    6.8   336    10.9   812.3    0.00 
 330   11:50   0.52   58.3    20    7.7     2    13.9   812.2    0.00 
 330   12:00   0.52   58.7    19    7.6   360    13.1   812.0    0.00 
 330   12:10   0.51   58.7    19    6.8   349    12.1   812.0    0.00 
 330   12:20   0.50   58.7    19    7.8    10    12.6   811.9    0.00 
 330   12:30   0.49   59.1    19    7.6   354    11.9   811.8    0.00 
 330   12:40   0.48   59.6    18    6.0     2    10.9   811.6    0.00 
 330   12:50   0.47   59.2    19    7.0     6    12.1   811.5    0.00 
 330   13:00   0.46   59.2    19    5.2    20    10.4   811.4    0.00 
 330   13:10   0.44   59.7    18    6.9   357    12.9   811.4    0.00 
 330   13:20   0.42   60.0    18    4.2   323    12.9   811.4    0.00 
 330   13:30   0.41   60.8    15    7.3   323    13.4   811.3    0.00 
 330   13:40   0.39   60.7    14    8.9   337    12.4   811.4    0.00 
 330   13:50   0.37   60.9    14    8.3   324    13.0   811.4    0.00 
 330   14:00   0.34   60.8    14    7.9   340    13.5   811.5    0.00 
 330   14:10   0.32   60.6    14    7.7   347    11.2   811.5    0.00 
 330   14:20   0.30   60.8    14    8.5   326    12.7   811.6    0.00 
 330   14:30   0.28   60.8    14    7.7   328    11.8   811.6    0.00 
 330   14:40   0.25   60.6    14    7.5   328    10.6   811.6    0.00 
 330   14:50   0.22   60.6    13    7.8   315    12.4   811.6    0.00 
 330   15:00   0.20   60.1    14    7.5   316    11.7   811.5    0.00 
 330   15:10   0.17   59.8    14    6.1   321     9.5   811.4    0.00 
 330   15:20   0.15   59.2    14    6.2   322     8.5   811.4    0.00 
 330   15:30   0.12   58.4    15    5.0   326     8.6   811.3    0.00 
 330   15:40   0.10   57.1    15    4.0   338     8.0   811.3    0.00 
 330   15:50   0.04   54.3    17    3.6   346     4.9   811.2    0.00 
 330   16:00   0.01   51.4    20    3.5    21     6.0   811.2    0.00 
 330   16:10   0.01   51.7    20    4.7    15     9.1   811.2    0.00 
 330   16:20   0.01   50.8    21    3.5    27     6.6   811.2    0.00 
 330   16:30   0.00   47.9    23    2.6    87     5.0   811.4    0.00 
 330   16:40   0.00   44.1    26    5.9    96     7.4   811.5    0.00 
 330   16:50   0.00   42.7    28    6.7    91     7.5   811.7    0.00 
 330   17:00   0.00   42.2    28    5.4    86     7.1   811.8    0.00 
 330   17:10   0.00   37.9    33    2.2   177     3.5   811.9    0.00 
 330   17:20   0.00   35.1    36    1.1    99     3.0   812.0    0.00 
 330   17:30   0.00   34.3    37    2.4   163     7.0   812.1    0.00 
 330   17:40   0.00   25.9    53    3.9   179     6.0   812.3    0.00 
 330   17:50   0.00   25.9    55    4.2   168     6.0   812.4    0.00 
 330   18:00   0.00   26.3    54    4.5   166     6.1   812.4    0.00 
 330   18:10   0.00   29.3    49    2.3   164     4.4   812.5    0.00 
 330   18:20   0.00   30.2    48    1.6   185     3.1   812.5    0.00 
 330   18:30   0.00   27.7    52    1.3   182     3.5   812.6    0.00 
 330   18:40   0.00   25.6    56    1.6   166     3.1   812.7    0.00 
 330   18:50   0.00   25.2    56    2.6   155     5.1   812.8    0.00 
 330   19:00   0.00   25.3    58    4.5   166     6.2   812.8    0.00 
 330   19:10   0.00   25.1    60    3.2   180     4.5   812.7    0.00 
 330   19:20   0.00   26.6    57    2.9   178     5.4   812.7    0.00 
 330   19:30   0.00   30.6    48    4.5   165     6.1   812.7    0.00 
 330   19:40   0.00   31.4    44    4.5   155     6.6   812.8    0.00 
 330   19:50   0.00   29.6    47    4.4   171     6.8   812.8    0.00 
 330   20:00   0.00   23.4    60    4.6   170     5.7   812.9    0.00 
 330   20:10   0.00   21.5    66    4.7   170     5.8   812.9    0.00 
 330   20:20   0.00   21.2    67    4.1   176     5.6   813.0    0.00 
 330   20:30   0.00   20.8    67    3.1   171     5.0   813.0    0.00 
 330   20:40   0.00   20.3    70    3.3   187     5.6   813.0    0.00 
 330   20:50   0.00   22.9    65    2.7   186     4.7   813.0    0.00 
 330   21:00   0.00   24.6    60    4.5   185     7.2   813.0    0.00 
 330   21:10   0.00   27.8    53    5.0   185     7.5   813.0    0.00 
 330   21:20   0.00   23.5    61    4.1   195     6.1   813.1    0.00 
 330   21:30   0.00   22.3    64    5.6   192     8.0   813.0    0.00 
 330   21:40   0.00   21.6    65    5.0   186     6.8   812.9    0.00 
 330   21:50   0.00   21.5    65    4.0   180     5.9   812.9    0.00 
 330   22:00   0.00   20.9    67    4.2   169     5.6   812.8    0.00 
 330   22:10   0.00   19.9    70    3.9   175     5.6   812.8    0.00 
 330   22:20   0.00   20.4    71    4.4   193     5.8   812.9    0.00 
 330   22:30   0.00   19.9    72    4.3   183     6.4   812.9    0.00 
 330   22:40   0.00   21.9    70    4.5   189     7.2   812.8    0.00 
 330   22:50   0.00   24.0    63    5.7   183     7.7   812.8    0.00 
 330   23:00   0.00   20.9    71    5.0   171     6.8   812.9    0.00 
 330   23:10   0.00   20.3    73    5.7   166     7.6   812.8    0.00 
 330   23:20   0.00   20.9    71    4.2   188     6.1   812.8    0.00 
 330   23:30   0.00   22.6    69    4.3   186     9.3   812.7    0.00 
 330   23:40   0.00   28.2    54    7.4   170    10.7   812.6    0.00 
 330   23:50   0.00   27.0    56    6.3   175     9.8   812.7    0.00 
 331    0:00   0.00   25.9    58    6.3   176     9.0   812.7    0.00 
 331    0:10   0.00   26.4    58    7.6   173    10.3   812.6    0.00 
 331    0:20   0.00   25.0    60    6.5   167     8.8   812.6    0.00 
 331    0:30   0.00   22.5    64    5.7   177     8.3   812.6    0.00 
 331    0:40   0.00   19.3    72    6.1   168     8.3   812.5    0.00 
 331    0:50   0.00   19.4    73    6.4   164     9.7   812.4    0.00 
 331    1:00   0.00   22.2    68    5.8   162     8.2   812.4    0.00 
 331    1:10   0.00   21.1    68    5.1   178     7.6   812.4    0.00 
 331    1:20   0.00   20.4    72    4.1   178     6.0   812.4    0.00 
 331    1:30   0.00   20.5    73    5.6   177     7.3   812.5    0.00 
 331    1:40   0.00   19.9    73    5.9   176     8.4   812.4    0.00 
 331    1:50   0.00   19.7    74    5.3   167     8.1   812.4    0.00 
 331    2:00   0.00   20.7    74    6.7   177     9.6   812.3    0.00 
 331    2:10   0.00   23.1    68    7.7   176    11.0   812.3    0.00 
 331    2:20   0.00   23.3    66    6.0   179     8.6   812.4    0.00 
 331    2:30   0.00   23.3    66    5.2   180     7.0   812.3    0.00 
 331    2:40   0.00   21.4    71    5.7   173     8.9   812.2    0.00 
 331    2:50   0.00   21.2    72    6.0   184    10.2   812.1    0.00 
 331    3:00   0.00   20.8    74    5.7   183     7.4   812.1    0.00 
 331    3:10   0.00   21.2    72    5.7   171     8.4   812.0    0.00 
 331    3:20   0.00   21.3    70    5.4   166     7.2   812.0    0.00 
 331    3:30   0.00   21.7    69    6.7   170     8.9   811.8    0.00 
 331    3:40   0.00   25.7    62    8.1   174    10.5   811.6    0.00 
 331    3:50   0.00   23.5    65    7.5   176    10.9   811.7    0.00 
 331    4:00   0.00   22.8    67    7.5   178    10.6   811.7    0.00 
 331    4:10   0.00   22.5    67    7.3   180    10.1   811.6    0.00 
 331    4:20   0.00   23.4    66    5.8   166     7.8   811.6    0.00 
 331    4:30   0.00   22.9    66    6.2   169     8.7   811.6    0.00 
 331    4:40   0.00   21.6    69    6.2   167     8.6   811.6    0.00 
 331    4:50   0.00   21.4    70    7.2   172     9.7   811.5    0.00 
 331    5:00   0.00   23.3    67    7.6   173    10.5   811.4    0.00 
 331    5:10   0.00   22.3    67    5.5   168     9.3   811.4    0.00 
 331    5:20   0.00   21.1    70    4.0   165     7.0   811.3    0.00 
 331    5:30   0.00   20.7    73    5.7   169     8.8   811.2    0.00 
 331    5:40   0.00   22.1    72    6.9   169    10.4   811.1    0.00 
 331    5:50   0.00   28.3    59    7.2   182    10.5   811.0    0.00 
 331    6:00   0.00   29.0    56    6.3   169    10.1   811.1    0.00 
 331    6:10   0.00   30.3    53    6.7   203    12.4   811.1    0.00 
 331    6:20   0.00   26.4    61    6.6   188    12.2   811.1    0.00 
 331    6:30   0.00   25.1    64    5.9   184    12.1   811.2    0.00 
 331    6:40   0.00   25.5    63    7.6   171    11.5   811.2    0.00 
 331    6:50   0.01   25.7    62    7.5   185    12.2   811.2    0.00 
 331    7:00   0.03   27.3    59    6.7   190    12.7   811.1    0.00 
 331    7:10   0.04   26.9    61    6.1   182    11.9   811.2    0.00 
 331    7:20   0.05   28.8    57    7.7   187    11.2   811.1    0.00 
 331    7:30   0.06   32.0    52    7.5   178    11.9   811.1    0.00 
 331    7:40   0.07   36.7    43    6.6   170    11.0   811.1    0.00 
 331    7:50   0.09   41.9    34    8.2   172    12.0   811.0    0.00 

Return to Steptoe Valley WMA graphs page.


Western Regional Climate Center,wrcc@dri.edu